sensor_id;sensor_type;location;lat;lon;timestamp;pressure;altitude;pressure_sealevel;temperature;humidity
63321;BME280;49449;48.800;9.534;2022-08-25T00:02:08;98662.22;;;20.28;39.07
63321;BME280;49449;48.800;9.534;2022-08-25T00:04:36;98661.81;;;20.16;39.86
63321;BME280;49449;48.800;9.534;2022-08-25T00:07:06;98660.28;;;20.10;39.75
63321;BME280;49449;48.800;9.534;2022-08-25T00:09:34;98658.69;;;20.09;39.64
63321;BME280;49449;48.800;9.534;2022-08-25T00:12:03;98659.50;;;20.09;39.82
63321;BME280;49449;48.800;9.534;2022-08-25T00:14:34;98657.44;;;20.01;40.03
63321;BME280;49449;48.800;9.534;2022-08-25T00:17:03;98658.28;;;19.96;39.67
63321;BME280;49449;48.800;9.534;2022-08-25T00:19:33;98649.47;;;19.96;39.57
63321;BME280;49449;48.800;9.534;2022-08-25T00:22:02;98656.13;;;19.98;39.58
63321;BME280;49449;48.800;9.534;2022-08-25T00:24:32;98651.13;;;19.92;39.85
63321;BME280;49449;48.800;9.534;2022-08-25T00:27:00;98650.63;;;19.90;40.10
63321;BME280;49449;48.800;9.534;2022-08-25T00:29:28;98662.41;;;19.89;39.76
63321;BME280;49449;48.800;9.534;2022-08-25T00:31:57;98661.03;;;19.91;39.58
63321;BME280;49449;48.800;9.534;2022-08-25T00:34:27;98654.88;;;19.91;39.78
63321;BME280;49449;48.800;9.534;2022-08-25T00:36:56;98654.66;;;19.87;39.67
63321;BME280;49449;48.800;9.534;2022-08-25T00:39:25;98654.66;;;19.87;39.98
63321;BME280;49449;48.800;9.534;2022-08-25T00:41:56;98647.13;;;19.89;40.01
63321;BME280;49449;48.800;9.534;2022-08-25T00:44:27;98648.50;;;19.86;39.82
63321;BME280;49449;48.800;9.534;2022-08-25T00:46:58;98654.72;;;19.82;39.76
63321;BME280;49449;48.800;9.534;2022-08-25T00:49:27;98650.44;;;19.81;39.46
63321;BME280;49449;48.800;9.534;2022-08-25T00:52:00;98651.75;;;19.83;39.70
63321;BME280;49449;48.800;9.534;2022-08-25T00:54:31;98650.44;;;19.81;39.83
63321;BME280;49449;48.800;9.534;2022-08-25T00:57:03;98652.59;;;19.79;40.16
63321;BME280;49449;48.800;9.534;2022-08-25T00:59:31;98648.91;;;19.75;39.98
63321;BME280;49449;48.800;9.534;2022-08-25T01:02:01;98652.16;;;19.72;39.87
63321;BME280;49449;48.800;9.534;2022-08-25T01:04:29;98644.09;;;19.72;39.76
63321;BME280;49449;48.800;9.534;2022-08-25T01:06:58;98648.97;;;19.70;39.70
63321;BME280;49449;48.800;9.534;2022-08-25T01:09:28;98650.56;;;19.71;39.68
63321;BME280;49449;48.800;9.534;2022-08-25T01:11:58;98645.25;;;19.65;39.93
63321;BME280;49449;48.800;9.534;2022-08-25T01:14:27;98653.59;;;19.64;39.75
63321;BME280;49449;48.800;9.534;2022-08-25T01:16:57;98643.16;;;19.62;40.08
63321;BME280;49449;48.800;9.534;2022-08-25T01:19:27;98652.81;;;19.58;40.09
63321;BME280;49449;48.800;9.534;2022-08-25T01:21:57;98647.72;;;19.57;40.09
63321;BME280;49449;48.800;9.534;2022-08-25T01:24:29;98643.72;;;19.54;40.11
63321;BME280;49449;48.800;9.534;2022-08-25T01:27:00;98630.91;;;19.51;40.25
63321;BME280;49449;48.800;9.534;2022-08-25T01:29:29;98628.81;;;19.48;40.44
63321;BME280;49449;48.800;9.534;2022-08-25T01:31:59;98628.28;;;19.46;40.46
63321;BME280;49449;48.800;9.534;2022-08-25T01:34:29;98628.28;;;19.46;40.30
63321;BME280;49449;48.800;9.534;2022-08-25T01:36:59;98630.97;;;19.46;40.00
63321;BME280;49449;48.800;9.534;2022-08-25T01:39:29;98629.66;;;19.43;40.35
63321;BME280;49449;48.800;9.534;2022-08-25T01:42:12;98628.63;;;19.39;40.34
63321;BME280;49449;48.800;9.534;2022-08-25T01:44:46;98628.13;;;19.37;40.37
63321;BME280;49449;48.800;9.534;2022-08-25T01:47:15;98630.00;;;19.37;40.36
63321;BME280;49449;48.800;9.534;2022-08-25T01:49:43;98631.06;;;19.36;40.04
63321;BME280;49449;48.800;9.534;2022-08-25T01:52:15;98621.75;;;19.33;40.13
63321;BME280;49449;48.800;9.534;2022-08-25T01:54:43;98620.13;;;19.32;40.22
63321;BME280;49449;48.800;9.534;2022-08-25T01:57:10;98622.56;;;19.28;40.48
63321;BME280;49449;48.800;9.534;2022-08-25T01:59:38;98623.94;;;19.26;40.22
63321;BME280;49449;48.800;9.534;2022-08-25T02:02:06;98629.28;;;19.26;40.65
63321;BME280;49449;48.800;9.534;2022-08-25T02:04:34;98621.56;;;19.24;40.38
63321;BME280;49449;48.800;9.534;2022-08-25T02:07:05;98625.31;;;19.23;40.20
63321;BME280;49449;48.800;9.534;2022-08-25T02:09:35;98616.28;;;19.14;40.30
63321;BME280;49449;48.800;9.534;2022-08-25T02:12:04;98620.81;;;19.14;40.77
63321;BME280;49449;48.800;9.534;2022-08-25T02:14:32;98621.38;;;19.16;40.60
63321;BME280;49449;48.800;9.534;2022-08-25T02:17:01;98627.22;;;19.18;40.74
63321;BME280;49449;48.800;9.534;2022-08-25T02:19:30;98627.22;;;19.18;40.76
63321;BME280;49449;48.800;9.534;2022-08-25T02:21:59;98624.31;;;19.14;40.77
63321;BME280;49449;48.800;9.534;2022-08-25T02:24:27;98628.44;;;19.01;41.07
63321;BME280;49449;48.800;9.534;2022-08-25T02:26:56;98626.06;;;19.00;41.32
63321;BME280;49449;48.800;9.534;2022-08-25T02:29:24;98626.09;;;18.95;40.88
63321;BME280;49449;48.800;9.534;2022-08-25T02:31:52;98623.69;;;18.93;41.26
63321;BME280;49449;48.800;9.534;2022-08-25T02:34:20;98612.72;;;18.95;40.96
63321;BME280;49449;48.800;9.534;2022-08-25T02:36:48;98616.72;;;18.92;40.94
63321;BME280;49449;48.800;9.534;2022-08-25T02:39:16;98620.75;;;18.89;41.23
63321;BME280;49449;48.800;9.534;2022-08-25T02:41:46;98614.91;;;18.87;40.94
63321;BME280;49449;48.800;9.534;2022-08-25T02:44:16;98610.69;;;18.76;41.62
63321;BME280;49449;48.800;9.534;2022-08-25T02:46:43;98620.13;;;18.68;41.19
63321;BME280;49449;48.800;9.534;2022-08-25T02:49:11;98619.34;;;18.68;41.51
63321;BME280;49449;48.800;9.534;2022-08-25T02:51:39;98616.97;;;18.61;41.82
63321;BME280;49449;48.800;9.534;2022-08-25T02:54:07;98618.88;;;18.56;41.92
63321;BME280;49449;48.800;9.534;2022-08-25T02:56:34;98617.31;;;18.49;41.69
63321;BME280;49449;48.800;9.534;2022-08-25T02:59:02;98616.56;;;18.44;41.97
63321;BME280;49449;48.800;9.534;2022-08-25T03:01:32;98605.38;;;18.37;42.30
63321;BME280;49449;48.800;9.534;2022-08-25T03:04:00;98601.13;;;18.30;42.71
63321;BME280;49449;48.800;9.534;2022-08-25T03:06:28;98601.44;;;18.19;42.62
63321;BME280;49449;48.800;9.534;2022-08-25T03:08:56;98605.94;;;18.23;42.20
63321;BME280;49449;48.800;9.534;2022-08-25T03:11:24;98604.59;;;18.31;42.23
63321;BME280;49449;48.800;9.534;2022-08-25T03:13:52;98611.50;;;18.37;42.11
63321;BME280;49449;48.800;9.534;2022-08-25T03:16:22;98610.97;;;18.40;42.07
63321;BME280;49449;48.800;9.534;2022-08-25T03:18:51;98601.06;;;18.41;42.05
63321;BME280;49449;48.800;9.534;2022-08-25T03:21:19;98608.81;;;18.42;41.73
63321;BME280;49449;48.800;9.534;2022-08-25T03:23:47;98606.38;;;18.46;41.92
63321;BME280;49449;48.800;9.534;2022-08-25T03:26:15;98608.56;;;18.39;41.69
63321;BME280;49449;48.800;9.534;2022-08-25T03:29:01;98600.78;;;18.42;41.70
63321;BME280;49449;48.800;9.534;2022-08-25T03:31:32;98602.38;;;18.43;41.82
63321;BME280;49449;48.800;9.534;2022-08-25T03:34:01;98605.56;;;18.45;41.51
63321;BME280;49449;48.800;9.534;2022-08-25T03:36:29;98603.44;;;18.42;41.58
63321;BME280;49449;48.800;9.534;2022-08-25T03:38:57;98608.81;;;18.42;41.51
63321;BME280;49449;48.800;9.534;2022-08-25T03:41:27;98610.47;;;18.33;41.96
63321;BME280;49449;48.800;9.534;2022-08-25T03:43:55;98616.91;;;18.27;42.16
63321;BME280;49449;48.800;9.534;2022-08-25T03:46:25;98616.38;;;18.20;42.38
63321;BME280;49449;48.800;9.534;2022-08-25T03:48:54;98624.94;;;18.16;42.32
63321;BME280;49449;48.800;9.534;2022-08-25T03:51:25;98615.34;;;18.15;42.36
63321;BME280;49449;48.800;9.534;2022-08-25T03:53:54;98624.47;;;18.09;42.12
63321;BME280;49449;48.800;9.534;2022-08-25T03:56:22;98627.97;;;18.05;42.31
63321;BME280;49449;48.800;9.534;2022-08-25T03:58:49;98625.31;;;18.05;42.08
63321;BME280;49449;48.800;9.534;2022-08-25T04:01:18;98623.91;;;18.12;42.07
63321;BME280;49449;48.800;9.534;2022-08-25T04:03:46;98619.91;;;18.15;42.01
63321;BME280;49449;48.800;9.534;2022-08-25T04:06:16;98617.22;;;18.15;42.05
63321;BME280;49449;48.800;9.534;2022-08-25T04:08:46;98610.78;;;18.16;41.75
63321;BME280;49449;48.800;9.534;2022-08-25T04:11:16;98601.97;;;18.15;42.02
63321;BME280;49449;48.800;9.534;2022-08-25T04:13:45;98594.47;;;18.17;41.65
63321;BME280;49449;48.800;9.534;2022-08-25T04:16:14;98601.19;;;18.15;41.91
63321;BME280;49449;48.800;9.534;2022-08-25T04:18:43;98604.13;;;18.13;42.01
63321;BME280;49449;48.800;9.534;2022-08-25T04:21:12;98597.16;;;18.17;41.84
63321;BME280;49449;48.800;9.534;2022-08-25T04:23:42;98598.75;;;18.19;41.53
63321;BME280;49449;48.800;9.534;2022-08-25T04:26:13;98598.75;;;18.19;41.50
63321;BME280;49449;48.800;9.534;2022-08-25T04:28:41;98596.91;;;18.14;41.83
63321;BME280;49449;48.800;9.534;2022-08-25T04:31:10;98599.03;;;18.17;42.02
63321;BME280;49449;48.800;9.534;2022-08-25T04:33:40;98592.88;;;18.16;41.79
63321;BME280;49449;48.800;9.534;2022-08-25T04:36:09;98607.31;;;18.21;41.64
63321;BME280;49449;48.800;9.534;2022-08-25T04:38:39;98603.84;;;18.20;41.64
63321;BME280;49449;48.800;9.534;2022-08-25T04:41:09;98610.78;;;18.21;41.77
63321;BME280;49449;48.800;9.534;2022-08-25T04:43:39;98614.00;;;18.18;41.99
63321;BME280;49449;48.800;9.534;2022-08-25T04:46:10;98614.00;;;18.18;42.03
63321;BME280;49449;48.800;9.534;2022-08-25T04:48:38;98600.09;;;18.16;41.75
63321;BME280;49449;48.800;9.534;2022-08-25T04:51:08;98597.91;;;18.23;41.78
63321;BME280;49449;48.800;9.534;2022-08-25T04:53:36;98598.75;;;18.24;41.87
63321;BME280;49449;48.800;9.534;2022-08-25T04:56:06;98604.88;;;18.24;41.91
63321;BME280;49449;48.800;9.534;2022-08-25T04:58:35;98613.69;;;18.30;41.54
63321;BME280;49449;48.800;9.534;2022-08-25T05:01:07;98611.78;;;18.35;41.60
63321;BME280;49449;48.800;9.534;2022-08-25T05:03:36;98620.28;;;18.43;41.78
63321;BME280;49449;48.800;9.534;2022-08-25T05:06:05;98620.53;;;18.46;41.59
63321;BME280;49449;48.800;9.534;2022-08-25T05:08:33;98618.41;;;18.48;41.40
63321;BME280;49449;48.800;9.534;2022-08-25T05:11:04;98618.66;;;18.52;41.60
63321;BME280;49449;48.800;9.534;2022-08-25T05:13:33;98612.97;;;18.59;41.69
63321;BME280;49449;48.800;9.534;2022-08-25T05:16:02;98615.56;;;18.69;41.41
63321;BME280;49449;48.800;9.534;2022-08-25T05:18:32;98624.06;;;18.76;41.09
63321;BME280;49449;48.800;9.534;2022-08-25T05:21:01;98616.03;;;18.76;40.82
63321;BME280;49449;48.800;9.534;2022-08-25T05:23:29;98622.94;;;18.87;41.05
63321;BME280;49449;48.800;9.534;2022-08-25T05:26:01;98620.47;;;18.96;40.96
63321;BME280;49449;48.800;9.534;2022-08-25T05:28:29;98621.75;;;19.04;40.50
63321;BME280;49449;48.800;9.534;2022-08-25T05:30:59;98619.25;;;19.13;40.59
63321;BME280;49449;48.800;9.534;2022-08-25T05:33:28;98607.63;;;19.22;40.36
63321;BME280;49449;48.800;9.534;2022-08-25T05:35:57;98609.69;;;19.30;40.32
63321;BME280;49449;48.800;9.534;2022-08-25T05:38:25;98609.53;;;19.46;39.60
63321;BME280;49449;48.800;9.534;2022-08-25T05:40:56;98607.88;;;19.50;39.98
63321;BME280;49449;48.800;9.534;2022-08-25T05:43:25;98602.53;;;19.50;39.47
63321;BME280;49449;48.800;9.534;2022-08-25T05:45:54;98604.59;;;19.58;39.43
63321;BME280;49449;48.800;9.534;2022-08-25T05:48:23;98606.59;;;19.72;39.45
63321;BME280;49449;48.800;9.534;2022-08-25T05:50:51;98604.56;;;19.82;39.26
63321;BME280;49449;48.800;9.534;2022-08-25T05:53:21;98595.84;;;19.96;39.44
63321;BME280;49449;48.800;9.534;2022-08-25T05:55:50;98597.88;;;20.04;38.98
63321;BME280;49449;48.800;9.534;2022-08-25T05:58:18;98595.84;;;20.15;39.21
63321;BME280;49449;48.800;9.534;2022-08-25T06:00:46;98587.66;;;20.25;38.92
63321;BME280;49449;48.800;9.534;2022-08-25T06:03:14;98595.34;;;20.32;38.52
63321;BME280;49449;48.800;9.534;2022-08-25T06:05:41;98593.34;;;20.42;38.35
63321;BME280;49449;48.800;9.534;2022-08-25T06:08:09;98589.19;;;20.50;38.44
63321;BME280;49449;48.800;9.534;2022-08-25T06:10:38;98582.28;;;20.63;38.45
63321;BME280;49449;48.800;9.534;2022-08-25T06:13:06;98581.13;;;20.69;37.94
63321;BME280;49449;48.800;9.534;2022-08-25T06:15:34;98572.88;;;20.79;37.82
63321;BME280;49449;48.800;9.534;2022-08-25T06:18:02;98572.19;;;20.88;38.17
63321;BME280;49449;48.800;9.534;2022-08-25T06:20:30;98572.34;;;20.96;37.74
63321;BME280;49449;48.800;9.534;2022-08-25T06:22:58;98569.09;;;21.13;37.75
63321;BME280;49449;48.800;9.534;2022-08-25T06:25:26;98565.31;;;21.28;37.77
63321;BME280;49449;48.800;9.534;2022-08-25T06:27:59;98568.00;;;21.42;37.26
63321;BME280;49449;48.800;9.534;2022-08-25T06:30:27;98557.28;;;21.56;37.03
63321;BME280;49449;48.800;9.534;2022-08-25T06:32:54;98561.06;;;21.69;37.22
63321;BME280;49449;48.800;9.534;2022-08-25T06:35:22;98562.44;;;21.80;37.18
63321;BME280;49449;48.800;9.534;2022-08-25T06:37:50;98568.22;;;21.87;37.28
63321;BME280;49449;48.800;9.534;2022-08-25T06:40:18;98568.41;;;21.91;37.18
63321;BME280;49449;48.800;9.534;2022-08-25T06:42:46;98565.66;;;22.05;36.89
63321;BME280;49449;48.800;9.534;2022-08-25T06:45:16;98563.84;;;22.14;36.96
63321;BME280;49449;48.800;9.534;2022-08-25T06:47:44;98564.38;;;22.16;36.80
63321;BME280;49449;48.800;9.534;2022-08-25T06:50:12;98565.03;;;22.22;36.60
63321;BME280;49449;48.800;9.534;2022-08-25T06:52:39;98573.00;;;22.27;36.47
63321;BME280;49449;48.800;9.534;2022-08-25T06:55:09;98562.72;;;22.29;36.56
63321;BME280;49449;48.800;9.534;2022-08-25T06:57:36;98565.47;;;22.38;36.79
63321;BME280;49449;48.800;9.534;2022-08-25T07:00:05;98560.94;;;22.47;36.52
63321;BME280;49449;48.800;9.534;2022-08-25T07:02:36;98557.53;;;22.55;36.63
63321;BME280;49449;48.800;9.534;2022-08-25T07:05:05;98561.53;;;22.66;36.04
63321;BME280;49449;48.800;9.534;2022-08-25T07:07:34;98560.03;;;22.74;36.31
63321;BME280;49449;48.800;9.534;2022-08-25T07:10:03;98564.25;;;22.89;36.27
63321;BME280;49449;48.800;9.534;2022-08-25T07:12:31;98568.06;;;22.88;36.69
63321;BME280;49449;48.800;9.534;2022-08-25T07:14:58;98567.16;;;23.01;36.49
63321;BME280;49449;48.800;9.534;2022-08-25T07:17:43;98573.75;;;23.18;35.95
63321;BME280;49449;48.800;9.534;2022-08-25T07:20:11;98565.22;;;23.33;35.74
63321;BME280;49449;48.800;9.534;2022-08-25T07:22:39;98552.44;;;23.48;35.34
63321;BME280;49449;48.800;9.534;2022-08-25T07:25:08;98561.38;;;23.57;35.34
63321;BME280;49449;48.800;9.534;2022-08-25T07:27:37;98556.94;;;23.61;35.44
63321;BME280;49449;48.800;9.534;2022-08-25T07:30:07;98556.97;;;23.78;34.74
63321;BME280;49449;48.800;9.534;2022-08-25T07:32:35;98563.63;;;23.90;35.50
63321;BME280;49449;48.800;9.534;2022-08-25T07:35:05;98550.81;;;23.95;35.12
63321;BME280;49449;48.800;9.534;2022-08-25T07:37:46;98555.25;;;24.17;34.99
63321;BME280;49449;48.800;9.534;2022-08-25T07:40:17;98553.19;;;24.32;34.70
63321;BME280;49449;48.800;9.534;2022-08-25T07:42:49;98546.16;;;24.48;34.49
63321;BME280;49449;48.800;9.534;2022-08-25T07:45:18;98554.28;;;24.66;33.73
63321;BME280;49449;48.800;9.534;2022-08-25T07:47:47;98552.81;;;24.77;33.48
63321;BME280;49449;48.800;9.534;2022-08-25T07:50:19;98545.91;;;24.97;33.40
63321;BME280;49449;48.800;9.534;2022-08-25T07:52:47;98554.31;;;25.13;33.04
63321;BME280;49449;48.800;9.534;2022-08-25T07:55:19;98539.09;;;25.00;33.45
63321;BME280;49449;48.800;9.534;2022-08-25T07:57:47;98544.63;;;25.12;32.93
63321;BME280;49449;48.800;9.534;2022-08-25T08:00:16;98534.56;;;25.21;32.54
63321;BME280;49449;48.800;9.534;2022-08-25T08:02:44;98532.69;;;25.13;32.60
63321;BME280;49449;48.800;9.534;2022-08-25T08:05:13;98536.03;;;25.10;32.38
63321;BME280;49449;48.800;9.534;2022-08-25T08:07:43;98538.75;;;25.01;32.35
63321;BME280;49449;48.800;9.534;2022-08-25T08:10:12;98542.13;;;25.07;32.48
63321;BME280;49449;48.800;9.534;2022-08-25T08:13:01;98540.78;;;25.13;32.68
63321;BME280;49449;48.800;9.534;2022-08-25T08:15:30;98536.81;;;25.19;33.04
63321;BME280;49449;48.800;9.534;2022-08-25T08:17:58;98538.00;;;25.30;32.36
63321;BME280;49449;48.800;9.534;2022-08-25T08:20:27;98541.63;;;25.35;32.31
63321;BME280;49449;48.800;9.534;2022-08-25T08:22:58;98544.88;;;25.28;32.29
63321;BME280;49449;48.800;9.534;2022-08-25T08:25:26;98543.84;;;25.41;32.19
63321;BME280;49449;48.800;9.534;2022-08-25T08:27:55;98539.03;;;25.47;32.25
63321;BME280;49449;48.800;9.534;2022-08-25T08:30:23;98540.88;;;25.64;32.19
63321;BME280;49449;48.800;9.534;2022-08-25T08:32:52;98543.13;;;25.83;32.06
63321;BME280;49449;48.800;9.534;2022-08-25T08:35:36;98534.81;;;25.88;31.48
63321;BME280;49449;48.800;9.534;2022-08-25T08:38:06;98535.53;;;25.97;31.35
63321;BME280;49449;48.800;9.534;2022-08-25T08:40:47;98531.75;;;25.90;30.95
63321;BME280;49449;48.800;9.534;2022-08-25T08:43:40;98532.13;;;25.88;31.11
63321;BME280;49449;48.800;9.534;2022-08-25T08:46:09;98529.53;;;25.71;31.26
63321;BME280;49449;48.800;9.534;2022-08-25T08:48:48;98524.84;;;25.80;31.36
63321;BME280;49449;48.800;9.534;2022-08-25T08:51:22;98518.97;;;25.99;31.25
63321;BME280;49449;48.800;9.534;2022-08-25T08:53:55;98505.25;;;26.04;30.97
63321;BME280;49449;48.800;9.534;2022-08-25T08:56:25;98510.06;;;26.19;30.77
63321;BME280;49449;48.800;9.534;2022-08-25T08:58:58;98505.38;;;26.29;30.69
63321;BME280;49449;48.800;9.534;2022-08-25T09:01:32;98506.75;;;26.14;29.32
63321;BME280;49449;48.800;9.534;2022-08-25T09:04:08;98505.50;;;26.11;30.17
63321;BME280;49449;48.800;9.534;2022-08-25T09:06:40;98497.88;;;26.13;29.84
63321;BME280;49449;48.800;9.534;2022-08-25T09:09:11;98493.28;;;26.26;30.21
63321;BME280;49449;48.800;9.534;2022-08-25T09:11:50;98488.78;;;26.42;30.00
63321;BME280;49449;48.800;9.534;2022-08-25T09:14:32;98492.13;;;26.15;30.33
63321;BME280;49449;48.800;9.534;2022-08-25T09:17:06;98483.34;;;26.30;29.51
63321;BME280;49449;48.800;9.534;2022-08-25T09:20:00;98485.22;;;26.17;29.87
63321;BME280;49449;48.800;9.534;2022-08-25T09:22:40;98477.81;;;26.27;29.61
63321;BME280;49449;48.800;9.534;2022-08-25T09:25:17;98484.19;;;26.43;29.96
63321;BME280;49449;48.800;9.534;2022-08-25T09:28:02;98488.72;;;26.63;29.53
63321;BME280;49449;48.800;9.534;2022-08-25T09:30:44;98477.09;;;26.51;29.60
63321;BME280;49449;48.800;9.534;2022-08-25T09:33:18;98482.56;;;26.75;29.15
63321;BME280;49449;48.800;9.534;2022-08-25T09:35:48;98480.75;;;26.67;28.69
63321;BME280;49449;48.800;9.534;2022-08-25T09:38:17;98482.13;;;26.73;28.65
63321;BME280;49449;48.800;9.534;2022-08-25T09:40:49;98482.69;;;26.79;28.30
63321;BME280;49449;48.800;9.534;2022-08-25T09:43:20;98472.63;;;27.04;28.12
63321;BME280;49449;48.800;9.534;2022-08-25T09:45:54;98469.47;;;27.27;27.85
63321;BME280;49449;48.800;9.534;2022-08-25T09:48:26;98471.38;;;27.38;27.58
63321;BME280;49449;48.800;9.534;2022-08-25T09:51:00;98479.91;;;27.65;27.57
63321;BME280;49449;48.800;9.534;2022-08-25T09:53:28;98466.06;;;27.42;27.36
63321;BME280;49449;48.800;9.534;2022-08-25T09:56:01;98465.38;;;27.58;27.42
63321;BME280;49449;48.800;9.534;2022-08-25T09:58:31;98460.88;;;27.37;27.60
63321;BME280;49449;48.800;9.534;2022-08-25T10:01:05;98454.06;;;27.43;27.43
63321;BME280;49449;48.800;9.534;2022-08-25T10:03:33;98457.34;;;27.49;27.37
63321;BME280;49449;48.800;9.534;2022-08-25T10:06:04;98462.13;;;27.68;27.55
63321;BME280;49449;48.800;9.534;2022-08-25T10:08:37;98454.38;;;27.66;26.63
63321;BME280;49449;48.800;9.534;2022-08-25T10:11:08;98448.69;;;27.71;26.85
63321;BME280;49449;48.800;9.534;2022-08-25T10:13:42;98444.63;;;27.78;26.92
63321;BME280;49449;48.800;9.534;2022-08-25T10:16:20;98441.72;;;27.58;27.06
63321;BME280;49449;48.800;9.534;2022-08-25T10:19:01;98451.88;;;27.73;26.85
63321;BME280;49449;48.800;9.534;2022-08-25T10:21:32;98441.75;;;27.86;26.65
63321;BME280;49449;48.800;9.534;2022-08-25T10:24:01;98450.69;;;27.46;26.87
63321;BME280;49449;48.800;9.534;2022-08-25T10:26:45;98437.84;;;27.71;26.63
63321;BME280;49449;48.800;9.534;2022-08-25T10:29:25;98424.72;;;28.02;27.67
63321;BME280;49449;48.800;9.534;2022-08-25T10:32:03;98428.47;;;28.41;26.33
63321;BME280;49449;48.800;9.534;2022-08-25T10:34:45;98424.00;;;28.49;25.89
63321;BME280;49449;48.800;9.534;2022-08-25T10:37:26;98409.34;;;28.69;25.80
63321;BME280;49449;48.800;9.534;2022-08-25T10:40:08;98401.13;;;28.82;25.42
63321;BME280;49449;48.800;9.534;2022-08-25T10:42:51;98408.59;;;28.85;25.74
63321;BME280;49449;48.800;9.534;2022-08-25T10:45:25;98400.09;;;28.71;25.28
63321;BME280;49449;48.800;9.534;2022-08-25T10:48:33;98404.69;;;28.70;25.35
63321;BME280;49449;48.800;9.534;2022-08-25T10:51:11;98409.28;;;28.82;25.40
63321;BME280;49449;48.800;9.534;2022-08-25T10:53:52;98405.16;;;28.88;25.30
63321;BME280;49449;48.800;9.534;2022-08-25T10:56:25;98407.25;;;28.79;25.67
63321;BME280;49449;48.800;9.534;2022-08-25T11:02:28;98398.38;;;28.98;25.54
63321;BME280;49449;48.800;9.534;2022-08-25T11:05:05;98395.59;;;28.78;25.23
63321;BME280;49449;48.800;9.534;2022-08-25T11:07:37;98398.84;;;28.52;25.49
63321;BME280;49449;48.800;9.534;2022-08-25T11:10:09;98393.69;;;28.47;25.69
63321;BME280;49449;48.800;9.534;2022-08-25T11:12:42;98388.84;;;28.56;25.74
63321;BME280;49449;48.800;9.534;2022-08-25T11:15:18;98386.50;;;28.39;26.01
63321;BME280;49449;48.800;9.534;2022-08-25T11:17:52;98385.78;;;28.58;25.68
63321;BME280;49449;48.800;9.534;2022-08-25T11:20:23;98388.84;;;28.56;25.06
63321;BME280;49449;48.800;9.534;2022-08-25T11:23:04;98381.41;;;28.85;25.20
63321;BME280;49449;48.800;9.534;2022-08-25T11:25:37;98377.56;;;29.05;25.01
63321;BME280;49449;48.800;9.534;2022-08-25T11:28:11;98372.84;;;29.02;25.05
63321;BME280;49449;48.800;9.534;2022-08-25T11:30:42;98360.47;;;29.05;24.52
63321;BME280;49449;48.800;9.534;2022-08-25T11:33:12;98355.97;;;29.13;25.29
63321;BME280;49449;48.800;9.534;2022-08-25T11:35:43;98361.81;;;28.95;25.21
63321;BME280;49449;48.800;9.534;2022-08-25T11:38:24;98363.47;;;29.00;25.54
63321;BME280;49449;48.800;9.534;2022-08-25T11:41:06;98371.41;;;29.09;24.67
63321;BME280;49449;48.800;9.534;2022-08-25T11:43:52;98361.97;;;29.02;24.41
63321;BME280;49449;48.800;9.534;2022-08-25T11:46:36;98364.03;;;29.09;25.23
63321;BME280;49449;48.800;9.534;2022-08-25T11:49:26;98364.16;;;28.97;24.80
63321;BME280;49449;48.800;9.534;2022-08-25T11:51:58;98355.44;;;28.87;24.72
63321;BME280;49449;48.800;9.534;2022-08-25T11:54:28;98355.50;;;28.91;24.58
63321;BME280;49449;48.800;9.534;2022-08-25T11:57:00;98351.94;;;28.87;24.86
63321;BME280;49449;48.800;9.534;2022-08-25T12:00:06;98357.16;;;28.96;25.09
63321;BME280;49449;48.800;9.534;2022-08-25T12:02:40;98351.09;;;29.02;24.60
63321;BME280;49449;48.800;9.534;2022-08-25T12:08:00;98354.41;;;28.76;24.73
63321;BME280;49449;48.800;9.534;2022-08-25T12:11:04;98353.50;;;28.88;24.17
63321;BME280;49449;48.800;9.534;2022-08-25T12:13:42;98348.34;;;28.83;24.48
63321;BME280;49449;48.800;9.534;2022-08-25T12:16:40;98347.75;;;28.58;25.01
63321;BME280;49449;48.800;9.534;2022-08-25T12:19:28;98340.47;;;28.78;23.72
63321;BME280;49449;48.800;9.534;2022-08-25T12:25:18;98326.56;;;28.47;24.24
63321;BME280;49449;48.800;9.534;2022-08-25T12:27:54;98335.44;;;28.28;24.90
63321;BME280;49449;48.800;9.534;2022-08-25T12:30:30;98345.03;;;28.42;24.31
63321;BME280;49449;48.800;9.534;2022-08-25T12:33:05;98339.28;;;28.27;24.40
63321;BME280;49449;48.800;9.534;2022-08-25T12:35:48;98326.50;;;28.44;24.46
63321;BME280;49449;48.800;9.534;2022-08-25T12:38:28;98335.88;;;28.30;24.19
63321;BME280;49449;48.800;9.534;2022-08-25T12:41:00;98330.50;;;28.50;24.70
63321;BME280;49449;48.800;9.534;2022-08-25T12:43:32;98330.63;;;28.22;24.46
63321;BME280;49449;48.800;9.534;2022-08-25T12:48:55;98329.53;;;27.94;24.27
63321;BME280;49449;48.800;9.534;2022-08-25T12:51:26;98326.19;;;28.17;24.39
63321;BME280;49449;48.800;9.534;2022-08-25T12:53:58;98320.97;;;28.24;24.49
63321;BME280;49449;48.800;9.534;2022-08-25T12:56:31;98323.50;;;28.33;23.83
63321;BME280;49449;48.800;9.534;2022-08-25T12:59:13;98324.72;;;28.52;23.70
63321;BME280;49449;48.800;9.534;2022-08-25T13:02:00;98315.50;;;28.56;23.75
63321;BME280;49449;48.800;9.534;2022-08-25T13:05:12;98315.59;;;28.60;23.24
63321;BME280;49449;48.800;9.534;2022-08-25T13:08:09;98320.13;;;28.56;23.22
63321;BME280;49449;48.800;9.534;2022-08-25T13:10:48;98320.38;;;28.66;23.67
63321;BME280;49449;48.800;9.534;2022-08-25T13:13:28;98330.34;;;28.43;23.70
63321;BME280;49449;48.800;9.534;2022-08-25T13:16:02;98318.97;;;28.37;23.47
63321;BME280;49449;48.800;9.534;2022-08-25T13:18:34;98311.75;;;28.45;23.41
63321;BME280;49449;48.800;9.534;2022-08-25T13:21:06;98317.72;;;28.35;23.86
63321;BME280;49449;48.800;9.534;2022-08-25T13:23:40;98305.47;;;28.25;23.88
63321;BME280;49449;48.800;9.534;2022-08-25T13:26:11;98309.31;;;28.40;23.63
63321;BME280;49449;48.800;9.534;2022-08-25T13:28:41;98301.25;;;28.43;23.78
63321;BME280;49449;48.800;9.534;2022-08-25T13:31:15;98303.13;;;28.23;23.51
63321;BME280;49449;48.800;9.534;2022-08-25T13:33:50;98297.41;;;28.28;24.35
63321;BME280;49449;48.800;9.534;2022-08-25T13:36:19;98297.66;;;28.39;24.23
63321;BME280;49449;48.800;9.534;2022-08-25T13:39:16;98294.44;;;28.34;24.83